Time;durP1;ratioP1;P1;durP2;ratioP2;P2;SDS_P1;SDS_P2;PMS_P1;PMS_P2;Temp;Humidity;BMP_temperature;BMP_pressure;BME280_temperature;BME280_humidity;BME280_pressure;Samples;Min_cycle;Max_cycle;Signal;HPM_P1;HPM_P2
2022/10/30 00:00:23;;;;;;;74.67;13.70;;;15.70;1.00;;;;;;5053985;28;21066;-73
2022/10/30 00:02:50;;;;;;;71.17;12.00;;;15.70;1.00;;;;;;5054872;28;20499;-73
2022/10/30 00:05:18;;;;;;;73.07;12.70;;;15.70;1.00;;;;;;5054958;28;20459;-73
2022/10/30 00:07:47;;;;;;;72.67;12.10;;;15.70;1.00;;;;;;5054671;28;20468;-73
2022/10/30 00:10:15;;;;;;;72.70;13.00;;;15.60;1.00;;;;;;5053905;28;20470;-73
2022/10/30 00:12:42;;;;;;;68.80;12.90;;;15.60;1.00;;;;;;5054513;28;20958;-73
2022/10/30 00:15:09;;;;;;;70.17;11.83;;;15.60;1.00;;;;;;5054406;28;20452;-72
2022/10/30 00:17:36;;;;;;;71.80;13.10;;;15.60;1.00;;;;;;5054614;28;20476;-73
2022/10/30 00:20:04;;;;;;;70.80;13.77;;;15.60;1.00;;;;;;5053795;28;20448;-74
2022/10/30 00:22:31;;;;;;;70.53;12.23;;;15.60;1.00;;;;;;5054367;28;20499;-72
2022/10/30 00:24:59;;;;;;;72.90;11.70;;;15.60;1.00;;;;;;5054387;28;20462;-73
2022/10/30 00:27:26;;;;;;;69.90;11.47;;;15.60;1.00;;;;;;5054082;28;20840;-73
2022/10/30 00:29:52;;;;;;;69.50;11.50;;;15.60;1.00;;;;;;5053521;28;20456;-73
2022/10/30 00:32:19;;;;;;;69.07;11.67;;;15.50;1.00;;;;;;5054130;28;20463;-74
2022/10/30 00:34:46;;;;;;;68.23;11.53;;;15.50;1.00;;;;;;5054151;28;20464;-73
2022/10/30 00:37:13;;;;;;;73.23;11.43;;;15.50;1.00;;;;;;5054081;28;20479;-73
2022/10/30 00:39:39;;;;;;;69.70;10.57;;;15.60;1.00;;;;;;5053366;28;20958;-74
2022/10/30 00:42:11;;;;;;;73.77;11.23;;;15.60;1.00;;;;;;5053864;28;20491;-72
2022/10/30 00:44:44;;;;;;;67.73;10.63;;;15.60;1.00;;;;;;5054274;28;20543;-73
2022/10/30 00:47:15;;;;;;;74.87;11.33;;;15.50;1.00;;;;;;5054173;28;20480;-73
2022/10/30 00:49:51;;;;;;;72.33;11.40;;;15.50;1.00;;;;;;5053197;28;20448;-73
2022/10/30 00:52:19;;;;;;;70.33;10.90;;;15.50;1.00;;;;;;5053789;28;20448;-73
2022/10/30 00:54:46;;;;;;;73.27;11.57;;;15.50;1.00;;;;;;5054008;28;20449;-73
2022/10/30 00:57:14;;;;;;;70.47;10.50;;;15.50;1.00;;;;;;5053838;28;20468;-73
2022/10/30 00:59:41;;;;;;;71.00;10.90;;;15.50;1.00;;;;;;5053009;28;20463;-73
2022/10/30 01:02:08;;;;;;;68.90;10.93;;;15.50;1.00;;;;;;5053061;28;20587;-73
2022/10/30 01:04:39;;;;;;;74.73;11.40;;;15.50;1.00;;;;;;5053674;28;20448;-73
2022/10/30 01:07:10;;;;;;;69.73;9.90;;;15.60;1.00;;;;;;5053443;28;20839;-73
2022/10/30 01:09:38;;;;;;;75.13;12.30;;;15.60;1.00;;;;;;5052976;28;20498;-73
2022/10/30 01:12:05;;;;;;;72.47;11.80;;;15.60;1.00;;;;;;5053535;28;20475;-72
2022/10/30 01:14:35;;;;;;;68.47;11.00;;;15.40;1.00;;;;;;5053363;28;20456;-73
2022/10/30 01:17:18;;;;;;;73.83;11.70;;;15.40;1.00;;;;;;5053634;28;20472;-73
2022/10/30 01:19:54;;;;;;;72.70;10.83;;;15.40;1.00;;;;;;5052584;28;20959;-73
2022/10/30 01:22:39;;;;;;;75.10;12.40;;;15.40;1.00;;;;;;5053568;28;20486;-73
2022/10/30 01:25:20;;;;;;;69.47;11.63;;;15.40;1.00;;;;;;5053261;28;20455;-73
2022/10/30 01:27:58;;;;;;;66.50;10.43;;;15.40;1.00;;;;;;5053548;28;20998;-73
2022/10/30 01:30:39;;;;;;;67.63;10.93;;;15.30;1.00;;;;;;5052621;28;20478;-74
2022/10/30 01:33:18;;;;;;;78.10;12.77;;;15.30;1.00;;;;;;5053162;28;20444;-73
2022/10/30 01:35:52;;;;;;;69.90;12.63;;;15.30;1.00;;;;;;5053132;28;20452;-73
2022/10/30 01:38:23;;;;;;;72.93;11.83;;;15.30;1.00;;;;;;5052750;28;20468;-72
2022/10/30 01:40:50;;;;;;;77.20;11.90;;;15.30;1.00;;;;;;5052643;28;20444;-73
2022/10/30 01:43:17;;;;;;;68.17;12.33;;;15.20;1.00;;;;;;5052914;28;20868;-73
2022/10/30 01:46:09;;;;;;;74.23;12.93;;;15.20;1.00;;;;;;5052793;28;20452;-72
2022/10/30 01:49:02;;;;;;;70.23;11.60;;;15.20;1.00;;;;;;5051972;28;20543;-73
2022/10/30 01:51:41;;;;;;;69.50;12.10;;;15.10;1.00;;;;;;5052962;28;20459;-72
2022/10/30 01:54:18;;;;;;;67.50;12.37;;;15.00;1.00;;;;;;5052668;28;20440;-73
2022/10/30 01:56:55;;;;;;;73.27;14.53;;;15.00;1.00;;;;;;5052613;28;20798;-73
2022/10/30 01:59:26;;;;;;;72.33;12.97;;;14.90;1.00;;;;;;5052106;28;20464;-74
2022/10/30 02:01:54;;;;;;;77.50;13.00;;;14.50;1.00;;;;;;5052725;28;20459;-73
2022/10/30 02:04:22;;;;;;;74.20;13.67;;;14.20;1.00;;;;;;5052544;28;20496;-73
2022/10/30 02:06:49;;;;;;;70.50;12.40;;;14.10;1.00;;;;;;5052347;28;20481;-73
2022/10/30 02:09:16;;;;;;;72.73;12.23;;;14.40;1.00;;;;;;5051734;28;20819;-73
2022/10/30 02:11:46;;;;;;;69.77;11.87;;;14.60;1.00;;;;;;5052216;28;20463;-73
2022/10/30 02:14:15;;;;;;;74.00;12.50;;;14.70;1.00;;;;;;5051689;28;20448;-73
2022/10/30 02:16:47;;;;;;;71.83;10.83;;;14.70;1.00;;;;;;5048458;28;20468;-73
2022/10/30 02:19:15;;;;;;;68.97;11.70;;;14.60;1.00;;;;;;5051423;28;20602;-72
2022/10/30 02:21:43;;;;;;;68.00;11.23;;;14.50;1.00;;;;;;5052519;28;20478;-74
2022/10/30 02:24:10;;;;;;;70.23;11.30;;;14.60;1.00;;;;;;5051979;28;20494;-73
2022/10/30 02:26:37;;;;;;;69.37;11.50;;;14.30;1.00;;;;;;5051980;28;20859;-73
2022/10/30 02:29:04;;;;;;;68.90;10.23;;;14.20;1.00;;;;;;5051318;28;20555;-73
2022/10/30 02:31:31;;;;;;;72.10;11.93;;;14.00;1.00;;;;;;5052020;28;20458;-73
2022/10/30 02:33:58;;;;;;;70.70;12.13;;;13.90;1.00;;;;;;5051777;28;20460;-73
2022/10/30 02:36:25;;;;;;;68.77;11.40;;;13.90;1.00;;;;;;5051837;28;20960;-73
2022/10/30 02:38:53;;;;;;;70.87;11.10;;;14.20;1.00;;;;;;5051361;28;20452;-73
2022/10/30 02:41:20;;;;;;;70.70;11.00;;;14.40;1.00;;;;;;5051998;28;20460;-73
2022/10/30 02:43:47;;;;;;;76.20;11.30;;;14.70;1.00;;;;;;5051842;28;20486;-74
2022/10/30 02:46:14;;;;;;;75.23;11.27;;;14.90;1.00;;;;;;5051737;28;20451;-73
2022/10/30 02:48:41;;;;;;;68.77;9.33;;;15.00;1.00;;;;;;5051256;28;20826;-73
2022/10/30 02:51:07;;;;;;;69.33;10.53;;;15.10;1.00;;;;;;5051915;28;20538;-73
2022/10/30 02:53:34;;;;;;;77.97;10.73;;;15.20;1.00;;;;;;5051913;28;20440;-73
2022/10/30 02:56:05;;;;;;;74.67;10.10;;;15.20;1.00;;;;;;5051623;28;20448;-74
2022/10/30 02:58:32;;;;;;;71.30;9.97;;;15.20;1.00;;;;;;5051210;28;20489;-73
2022/10/30 03:01:05;;;;;;;65.60;9.40;;;15.20;1.00;;;;;;5051587;28;20448;-74
2022/10/30 03:03:32;;;;;;;70.27;10.80;;;15.20;1.00;;;;;;5051578;28;21019;-73
2022/10/30 03:06:00;;;;;;;73.87;10.97;;;15.20;1.00;;;;;;5051747;28;20448;-72
2022/10/30 03:08:27;;;;;;;67.90;9.90;;;15.30;1.00;;;;;;5051556;28;20472;-73
2022/10/30 03:11:00;;;;;;;75.00;10.13;;;15.20;1.00;;;;;;5051132;28;20826;-73
2022/10/30 03:13:29;;;;;;;71.40;9.87;;;15.20;1.00;;;;;;5051514;28;20492;-73
2022/10/30 03:16:00;;;;;;;67.27;9.73;;;15.20;1.00;;;;;;5051742;28;20455;-74
2022/10/30 03:18:27;;;;;;;79.27;10.17;;;15.20;1.00;;;;;;5051647;28;20468;-73
2022/10/30 03:20:57;;;;;;;69.00;10.17;;;15.20;1.00;;;;;;5051031;28;20449;-73
2022/10/30 03:23:24;;;;;;;73.30;10.33;;;15.20;1.00;;;;;;5051453;28;20650;-74
2022/10/30 03:25:54;;;;;;;68.57;9.40;;;15.20;1.00;;;;;;5054028;28;20821;-72
2022/10/30 03:28:21;;;;;;;68.30;9.27;;;15.10;1.00;;;;;;5055226;28;20984;-73
2022/10/30 03:30:49;;;;;;;82.43;11.03;;;15.00;1.00;;;;;;5054916;28;20451;-73
2022/10/30 03:33:16;;;;;;;69.60;9.97;;;15.00;1.00;;;;;;5055193;28;20935;-73
2022/10/30 03:35:44;;;;;;;75.80;9.40;;;15.00;1.00;;;;;;5055294;28;20466;-73
2022/10/30 03:38:11;;;;;;;67.73;9.20;;;15.00;1.00;;;;;;5055071;28;20518;-73
2022/10/30 03:40:38;;;;;;;73.30;10.13;;;15.00;1.00;;;;;;5054395;28;20456;-74
2022/10/30 03:43:05;;;;;;;73.17;10.20;;;14.90;1.00;;;;;;5055246;28;20491;-73
2022/10/30 03:45:33;;;;;;;66.77;8.30;;;14.90;1.00;;;;;;5055235;28;20820;-73
2022/10/30 03:48:02;;;;;;;64.80;8.07;;;14.90;1.00;;;;;;5055013;28;20468;-73
2022/10/30 03:50:29;;;;;;;69.80;9.33;;;14.90;1.00;;;;;;5054396;28;20454;-73
2022/10/30 03:52:56;;;;;;;69.93;9.10;;;14.90;1.00;;;;;;5054942;28;20818;-73
2022/10/30 03:55:23;;;;;;;70.33;9.40;;;14.80;1.00;;;;;;5055337;28;20444;-73
2022/10/30 03:57:50;;;;;;;71.63;10.73;;;14.80;1.00;;;;;;5054866;28;20464;-73
2022/10/30 04:00:18;;;;;;;69.40;9.83;;;14.80;1.00;;;;;;5054046;28;20456;-73
2022/10/30 04:02:46;;;;;;;75.33;9.30;;;14.70;1.00;;;;;;5054776;28;20448;-73
2022/10/30 04:05:15;;;;;;;69.60;9.70;;;14.70;1.00;;;;;;5054773;28;20482;-74
2022/10/30 04:07:41;;;;;;;71.20;9.90;;;14.60;1.00;;;;;;5054576;28;20555;-73
2022/10/30 04:10:09;;;;;;;67.70;10.07;;;14.60;1.00;;;;;;5053977;28;20474;-73
2022/10/30 04:12:36;;;;;;;67.40;8.70;;;14.50;1.00;;;;;;5054736;28;20448;-73
2022/10/30 04:15:03;;;;;;;65.67;9.70;;;14.50;1.00;;;;;;5054701;28;20470;-72
2022/10/30 04:17:30;;;;;;;70.17;9.80;;;14.50;1.00;;;;;;5054444;28;20468;-73
2022/10/30 04:19:56;;;;;;;65.87;9.07;;;14.40;1.00;;;;;;5053636;28;20452;-72
2022/10/30 04:22:25;;;;;;;67.73;8.70;;;14.40;1.00;;;;;;5054639;28;20458;-73
2022/10/30 04:24:52;;;;;;;64.27;8.00;;;14.30;1.00;;;;;;5054251;28;20484;-73
2022/10/30 04:27:19;;;;;;;68.27;9.03;;;14.30;1.00;;;;;;5054448;28;20480;-72
2022/10/30 04:29:46;;;;;;;72.53;9.47;;;14.20;1.00;;;;;;5053539;28;20506;-73
2022/10/30 04:32:14;;;;;;;65.10;8.53;;;14.20;1.00;;;;;;5054182;28;20922;-73
2022/10/30 04:34:41;;;;;;;68.40;9.63;;;14.20;1.00;;;;;;5054054;28;20467;-73
2022/10/30 04:37:08;;;;;;;70.20;9.40;;;14.20;1.00;;;;;;5053377;28;20774;-72
2022/10/30 04:39:36;;;;;;;66.00;10.00;;;14.20;1.00;;;;;;5053415;28;20459;-73
2022/10/30 04:42:03;;;;;;;70.10;9.37;;;14.20;1.00;;;;;;5054209;28;20444;-73
2022/10/30 04:44:29;;;;;;;72.17;9.30;;;14.10;1.00;;;;;;5054002;28;20488;-72
2022/10/30 04:46:59;;;;;;;73.93;8.53;;;14.10;1.00;;;;;;5053798;28;20475;-73
2022/10/30 04:49:26;;;;;;;71.40;10.07;;;14.10;1.00;;;;;;5053569;28;20452;-73
2022/10/30 04:51:53;;;;;;;66.63;9.30;;;14.00;1.00;;;;;;5053728;28;20448;-73
2022/10/30 04:54:20;;;;;;;66.40;8.40;;;14.00;1.00;;;;;;5053954;28;20436;-73
2022/10/30 04:56:49;;;;;;;68.43;10.20;;;14.00;1.00;;;;;;5053809;28;20480;-73
2022/10/30 04:59:15;;;;;;;77.87;9.67;;;14.00;1.00;;;;;;5053099;28;20445;-72
2022/10/30 05:01:42;;;;;;;67.47;8.77;;;14.00;1.00;;;;;;5053597;28;20451;-72
2022/10/30 05:04:09;;;;;;;67.10;9.30;;;14.00;1.00;;;;;;5053738;28;20487;-73
2022/10/30 05:06:36;;;;;;;67.60;8.63;;;14.10;1.00;;;;;;5053730;28;20471;-72
2022/10/30 05:09:03;;;;;;;69.13;9.37;;;14.00;1.00;;;;;;5052829;28;20455;-73
2022/10/30 05:11:30;;;;;;;72.53;9.00;;;14.00;1.00;;;;;;5053620;28;20444;-72
2022/10/30 05:13:58;;;;;;;66.33;9.77;;;14.00;1.00;;;;;;5053926;28;20475;-73
2022/10/30 05:16:25;;;;;;;65.77;9.30;;;14.00;1.00;;;;;;5053537;28;20476;-73
2022/10/30 05:18:51;;;;;;;65.77;8.80;;;13.90;1.00;;;;;;5052590;28;20543;-73
2022/10/30 05:21:18;;;;;;;66.73;9.93;;;13.90;1.00;;;;;;5053486;28;20807;-72
2022/10/30 05:23:45;;;;;;;72.23;8.60;;;13.90;1.00;;;;;;5053260;28;20492;-73
2022/10/30 05:26:12;;;;;;;67.67;9.30;;;13.80;1.00;;;;;;5053214;28;20827;-73
2022/10/30 05:28:41;;;;;;;65.53;8.10;;;13.80;1.00;;;;;;5052373;28;20452;-72
2022/10/30 05:31:09;;;;;;;66.80;9.07;;;13.80;1.00;;;;;;5053524;28;20510;-72
2022/10/30 05:33:36;;;;;;;70.43;9.13;;;13.70;1.00;;;;;;5052981;28;20452;-73
2022/10/30 05:36:03;;;;;;;69.53;9.10;;;13.70;1.00;;;;;;5053129;28;20456;-72
2022/10/30 05:38:30;;;;;;;67.87;8.20;;;13.50;1.00;;;;;;5052604;28;20467;-72
2022/10/30 05:40:56;;;;;;;70.63;8.50;;;13.50;1.00;;;;;;5052694;28;20956;-72
2022/10/30 05:43:23;;;;;;;70.30;9.17;;;13.40;1.00;;;;;;5052725;28;20481;-73
2022/10/30 05:45:50;;;;;;;71.53;9.27;;;13.40;1.00;;;;;;5053217;28;20448;-72
2022/10/30 05:48:18;;;;;;;64.87;8.63;;;13.40;1.00;;;;;;5052655;28;20479;-72
2022/10/30 05:50:45;;;;;;;68.00;9.33;;;13.40;1.00;;;;;;5052188;28;20618;-72
2022/10/30 05:53:12;;;;;;;67.10;9.00;;;13.40;1.00;;;;;;5052757;28;20452;-73
2022/10/30 05:55:39;;;;;;;68.80;9.70;;;13.40;1.00;;;;;;5052606;28;20461;-72
2022/10/30 05:58:06;;;;;;;66.07;9.17;;;13.30;1.00;;;;;;5052439;28;20852;-72
2022/10/30 06:00:35;;;;;;;68.70;9.23;;;13.40;1.00;;;;;;5052000;28;20512;-73
2022/10/30 06:03:04;;;;;;;66.90;9.13;;;13.40;1.00;;;;;;5052492;28;20956;-73
2022/10/30 06:05:34;;;;;;;67.07;8.70;;;13.40;1.00;;;;;;5052348;28;20497;-73
2022/10/30 06:08:01;;;;;;;75.20;9.23;;;13.40;1.00;;;;;;5052581;28;20465;-73
2022/10/30 06:10:28;;;;;;;70.03;8.90;;;13.40;1.00;;;;;;5051599;28;20455;-73
2022/10/30 06:12:56;;;;;;;64.90;8.00;;;13.40;1.00;;;;;;5052544;28;20448;-72
2022/10/30 06:15:23;;;;;;;68.87;8.87;;;13.40;1.00;;;;;;5052644;28;20447;-73
2022/10/30 06:17:50;;;;;;;64.90;8.60;;;13.40;1.00;;;;;;5052401;28;20475;-72
2022/10/30 06:20:19;;;;;;;68.07;9.43;;;13.40;1.00;;;;;;5051388;28;20452;-73
2022/10/30 06:22:55;;;;;;;69.80;8.90;;;13.40;1.00;;;;;;5052146;28;20459;-72
2022/10/30 06:25:22;;;;;;;68.50;9.27;;;13.50;1.00;;;;;;5052388;28;20540;-73
2022/10/30 06:27:49;;;;;;;68.77;10.00;;;13.50;1.00;;;;;;5052144;28;20468;-73
2022/10/30 06:30:16;;;;;;;69.37;9.57;;;13.50;1.00;;;;;;5051326;28;20968;-73
2022/10/30 06:32:43;;;;;;;67.80;9.30;;;13.50;1.00;;;;;;5052111;28;20458;-73
2022/10/30 06:35:10;;;;;;;73.40;10.30;;;13.60;1.00;;;;;;5052059;28;20464;-73
2022/10/30 06:37:38;;;;;;;70.27;9.53;;;13.60;1.00;;;;;;5051774;28;20472;-73
2022/10/30 06:40:08;;;;;;;69.17;10.67;;;13.60;1.00;;;;;;5051506;28;20858;-73
2022/10/30 06:42:42;;;;;;;68.37;8.70;;;13.70;1.00;;;;;;5052016;28;20451;-72
2022/10/30 06:45:09;;;;;;;70.53;8.97;;;13.70;1.00;;;;;;5051932;28;20488;-73
2022/10/30 06:47:36;;;;;;;67.33;9.40;;;13.80;1.00;;;;;;5051692;28;20483;-73
2022/10/30 06:50:03;;;;;;;71.20;8.93;;;13.80;1.00;;;;;;5051008;28;20833;-73
2022/10/30 06:52:30;;;;;;;66.40;8.83;;;13.90;1.00;;;;;;5051932;28;20450;-73
2022/10/30 06:54:57;;;;;;;77.00;11.03;;;13.90;1.00;;;;;;5051785;28;20986;-73
2022/10/30 06:57:25;;;;;;;69.37;9.00;;;14.00;1.00;;;;;;5051812;28;20464;-73
2022/10/30 06:59:52;;;;;;;64.10;9.03;;;14.10;1.00;;;;;;5050659;28;20454;-72
2022/10/30 07:02:19;;;;;;;67.20;9.30;;;14.10;1.00;;;;;;5051698;28;20456;-73
2022/10/30 07:04:46;;;;;;;66.00;8.50;;;14.20;1.00;;;;;;5051647;28;21022;-73
2022/10/30 07:07:13;;;;;;;71.33;9.80;;;14.20;1.00;;;;;;5051542;28;20980;-73
2022/10/30 07:09:40;;;;;;;72.03;10.00;;;14.30;1.00;;;;;;5051036;28;20452;-73
2022/10/30 07:12:07;;;;;;;68.67;9.83;;;14.20;1.00;;;;;;5051932;28;20445;-73
2022/10/30 07:14:36;;;;;;;65.47;9.00;;;14.10;1.00;;;;;;5051643;28;20456;-73
2022/10/30 07:17:02;;;;;;;74.37;12.30;;;14.00;1.00;;;;;;5051516;28;20474;-73
2022/10/30 07:19:29;;;;;;;67.87;9.60;;;14.20;1.00;;;;;;5050767;28;20448;-73
2022/10/30 07:21:56;;;;;;;68.67;9.30;;;14.30;1.00;;;;;;5051867;28;20837;-73
2022/10/30 07:24:23;;;;;;;66.90;9.70;;;14.40;1.00;;;;;;5051578;28;20494;-73
2022/10/30 07:26:49;;;;;;;66.33;9.50;;;14.60;1.00;;;;;;5051575;28;20468;-73
2022/10/30 07:29:16;;;;;;;69.90;9.57;;;14.70;1.00;;;;;;5050728;28;20460;-73
2022/10/30 07:31:46;;;;;;;68.80;8.90;;;14.80;1.00;;;;;;5051488;28;20448;-73
2022/10/30 07:34:12;;;;;;;66.47;8.00;;;14.90;1.00;;;;;;5051385;28;20468;-73
2022/10/30 07:36:39;;;;;;;72.10;9.70;;;15.00;1.00;;;;;;5051459;28;20472;-73
2022/10/30 07:39:06;;;;;;;65.70;8.80;;;15.00;1.00;;;;;;5050639;28;20464;-73
2022/10/30 07:41:33;;;;;;;72.20;8.60;;;15.20;1.00;;;;;;5051365;28;20798;-73
2022/10/30 07:43:59;;;;;;;70.70;9.00;;;15.30;1.00;;;;;;5051202;28;20486;-73
2022/10/30 07:46:26;;;;;;;68.20;8.23;;;15.40;1.00;;;;;;5051365;28;20479;-73
2022/10/30 07:48:55;;;;;;;67.10;8.80;;;15.40;1.00;;;;;;5050651;28;20478;-73
2022/10/30 07:51:24;;;;;;;69.07;10.73;;;15.50;1.00;;;;;;5051334;28;20456;-72
2022/10/30 07:53:50;;;;;;;67.60;8.90;;;15.50;1.00;;;;;;5051281;28;20822;-72
2022/10/30 07:56:17;;;;;;;71.27;9.43;;;15.50;1.00;;;;;;5051184;28;20484;-74
2022/10/30 07:58:44;;;;;;;66.60;8.33;;;15.50;1.00;;;;;;5050300;28;20452;-73
2022/10/30 08:01:11;;;;;;;72.30;9.30;;;15.70;1.00;;;;;;5051384;28;20448;-73
2022/10/30 08:03:37;;;;;;;70.27;9.10;;;15.80;1.00;;;;;;5051016;28;20448;-74
2022/10/30 08:06:06;;;;;;;65.30;8.27;;;15.90;1.00;;;;;;5051165;28;20940;-73
2022/10/30 08:08:33;;;;;;;68.40;8.63;;;15.70;1.00;;;;;;5050637;28;20828;-73
2022/10/30 08:11:00;;;;;;;65.73;8.10;;;15.60;1.00;;;;;;5051506;28;20453;-74
2022/10/30 08:13:26;;;;;;;67.60;8.80;;;15.90;1.00;;;;;;5054288;28;20452;-74
2022/10/30 08:15:53;;;;;;;70.30;8.50;;;15.70;1.00;;;;;;5054549;28;20522;-73
2022/10/30 08:18:20;;;;;;;69.00;8.90;;;15.60;1.00;;;;;;5054585;28;20476;-73
2022/10/30 08:20:50;;;;;;;72.30;8.10;;;15.50;1.00;;;;;;5053953;28;20452;-73
2022/10/30 08:23:18;;;;;;;67.20;7.80;;;15.30;1.00;;;;;;5054612;28;20445;-73
2022/10/30 08:25:46;;;;;;;72.10;8.27;;;15.40;1.00;;;;;;5054297;28;20555;-74
2022/10/30 08:28:13;;;;;;;69.80;8.07;;;15.40;1.00;;;;;;5054182;28;20525;-74
2022/10/30 08:30:40;;;;;;;68.83;9.27;;;15.80;1.00;;;;;;5054043;28;20451;-73
2022/10/30 08:33:12;;;;;;;67.93;9.20;;;15.70;1.00;;;;;;5054353;28;20467;-74
2022/10/30 08:35:39;;;;;;;65.40;7.60;;;15.60;1.00;;;;;;5054133;28;20835;-74
2022/10/30 08:38:05;;;;;;;69.17;8.10;;;15.60;1.00;;;;;;5054177;28;20474;-73
2022/10/30 08:40:34;;;;;;;68.10;8.33;;;16.10;1.00;;;;;;5053320;28;20467;-74
2022/10/30 08:43:00;;;;;;;68.00;8.87;;;16.50;1.00;;;;;;5054063;28;20940;-74
2022/10/30 08:45:27;;;;;;;71.30;8.10;;;16.70;1.00;;;;;;5054115;28;20488;-74
2022/10/30 08:47:58;;;;;;;75.20;8.83;;;16.60;1.00;;;;;;5054065;28;20472;-73
2022/10/30 08:50:25;;;;;;;71.57;8.67;;;16.50;1.00;;;;;;5053164;28;20459;-74
2022/10/30 08:52:52;;;;;;;65.40;7.10;;;16.60;1.00;;;;;;5053809;28;20449;-73
2022/10/30 08:55:18;;;;;;;65.70;7.60;;;16.60;1.00;;;;;;5053856;28;20440;-75
2022/10/30 08:57:47;;;;;;;69.23;7.47;;;16.70;1.00;;;;;;5053940;28;20480;-74
2022/10/30 09:00:14;;;;;;;71.93;8.03;;;16.80;1.00;;;;;;5052962;28;20452;-73
2022/10/30 09:02:41;;;;;;;68.37;6.33;;;17.00;1.00;;;;;;5053924;28;20819;-74
2022/10/30 09:05:09;;;;;;;70.23;7.37;;;17.10;1.00;;;;;;5053646;28;20502;-74
2022/10/30 09:07:36;;;;;;;65.60;7.53;;;17.40;1.00;;;;;;5053671;28;20981;-74
2022/10/30 09:10:03;;;;;;;64.70;6.60;;;17.80;1.00;;;;;;5053144;28;20456;-74
2022/10/30 09:12:30;;;;;;;63.67;6.73;;;17.70;1.00;;;;;;5053624;28;20996;-74
2022/10/30 09:14:58;;;;;;;65.40;6.60;;;17.80;1.00;;;;;;5053619;28;20531;-74
2022/10/30 09:17:25;;;;;;;68.27;7.03;;;18.30;1.00;;;;;;5053458;28;20477;-74
2022/10/30 09:19:52;;;;;;;64.60;6.67;;;18.60;1.00;;;;;;5052576;28;20478;-74
2022/10/30 09:22:19;;;;;;;66.27;6.30;;;18.90;1.00;;;;;;5052854;28;20460;-74
2022/10/30 09:24:46;;;;;;;64.93;6.37;;;19.30;1.00;;;;;;5053392;28;20848;-75
2022/10/30 09:27:12;;;;;;;63.57;6.57;;;19.90;1.00;;;;;;5053358;28;20490;-74
2022/10/30 09:29:39;;;;;;;72.43;6.43;;;22.00;1.00;;;;;;5052651;28;20459;-75
2022/10/30 09:32:09;;;;;;;68.73;6.23;;;25.50;1.00;;;;;;5053148;28;20456;-75
2022/10/30 09:34:36;;;;;;;69.90;5.90;;;28.30;1.00;;;;;;5052902;28;20460;-75
2022/10/30 09:37:03;;;;;;;64.87;6.67;;;30.10;99.90;;;;;;5053189;28;20476;-75
2022/10/30 09:39:29;;;;;;;64.33;7.40;;;31.80;99.90;;;;;;5052486;28;20455;-73
2022/10/30 09:42:12;;;;;;;64.30;5.63;;;33.60;99.90;;;;;;5053103;28;20478;-73
2022/10/30 09:44:49;;;;;;;64.20;5.70;;;34.30;99.90;;;;;;5052934;28;20455;-72
2022/10/30 09:47:25;;;;;;;67.10;5.80;;;34.40;99.90;;;;;;5053201;28;20833;-72
2022/10/30 09:50:13;;;;;;;71.20;5.93;;;34.50;99.90;;;;;;5052023;28;20909;-73
2022/10/30 09:52:45;;;;;;;66.17;6.13;;;34.20;99.90;;;;;;5052666;28;20448;-73
2022/10/30 09:55:25;;;;;;;64.00;5.40;;;33.60;99.90;;;;;;5052778;28;20448;-73
2022/10/30 09:58:01;;;;;;;66.93;5.20;;;33.30;99.90;;;;;;5052692;28;20660;-72
2022/10/30 10:00:34;;;;;;;63.47;5.70;;;33.90;99.90;;;;;;5052076;28;20820;-72
2022/10/30 10:03:16;;;;;;;69.70;6.60;;;34.50;99.90;;;;;;5052675;28;20816;-73
2022/10/30 10:05:46;;;;;;;60.60;5.30;;;35.40;99.90;;;;;;5052399;28;20480;-73
2022/10/30 10:08:17;;;;;;;62.20;5.30;;;34.80;99.90;;;;;;5052357;28;20476;-73
2022/10/30 10:10:46;;;;;;;65.20;6.93;;;35.10;99.90;;;;;;5051912;28;20444;-72
2022/10/30 10:13:24;;;;;;;65.87;6.00;;;36.80;99.90;;;;;;5052426;28;20539;-74
2022/10/30 10:15:56;;;;;;;66.87;6.30;;;39.00;99.90;;;;;;5052335;28;20444;-73
2022/10/30 10:18:29;;;;;;;63.97;5.77;;;41.00;99.90;;;;;;5051987;28;20468;-73
2022/10/30 10:21:03;;;;;;;67.50;5.80;;;41.30;99.90;;;;;;5052281;28;20440;-73
2022/10/30 10:23:35;;;;;;;63.57;5.87;;;40.50;99.90;;;;;;5052314;28;20450;-73
2022/10/30 10:26:16;;;;;;;63.40;5.50;;;40.80;99.90;;;;;;5052161;28;20484;-73
2022/10/30 10:28:55;;;;;;;62.60;5.93;;;41.90;99.90;;;;;;5051337;28;20816;-73
2022/10/30 10:31:34;;;;;;;63.27;6.53;;;42.10;99.90;;;;;;5052391;28;20460;-73
2022/10/30 10:34:20;;;;;;;67.20;5.50;;;41.70;99.90;;;;;;5051432;28;20471;-74
2022/10/30 10:36:54;;;;;;;62.10;4.90;;;40.00;99.90;;;;;;5052019;28;20464;-73
2022/10/30 10:39:34;;;;;;;62.50;5.30;;;39.90;99.90;;;;;;5051169;28;20460;-72
2022/10/30 10:42:12;;;;;;;62.77;4.70;;;39.90;99.90;;;;;;5052146;28;20452;-74
2022/10/30 10:44:49;;;;;;;62.90;4.70;;;39.30;99.90;;;;;;5052002;28;20966;-73
2022/10/30 10:47:32;;;;;;;61.30;5.53;;;39.60;99.90;;;;;;5051814;28;20981;-73
2022/10/30 10:50:15;;;;;;;60.77;4.97;;;39.60;99.90;;;;;;5051276;28;20448;-73
2022/10/30 10:52:47;;;;;;;65.70;4.63;;;39.40;99.90;;;;;;5051815;28;20828;-73
2022/10/30 10:55:17;;;;;;;62.37;4.90;;;39.20;99.90;;;;;;5052045;28;20448;-74
2022/10/30 10:57:45;;;;;;;66.20;4.97;;;39.40;99.90;;;;;;5051763;28;20479;-74
2022/10/30 11:00:16;;;;;;;63.50;5.20;;;39.80;99.90;;;;;;5050864;28;20449;-72
2022/10/30 11:02:48;;;;;;;63.10;4.93;;;39.20;99.90;;;;;;5051696;28;20448;-73
2022/10/30 11:05:25;;;;;;;62.57;4.70;;;38.00;99.90;;;;;;5051726;28;20480;-73
2022/10/30 11:07:54;;;;;;;63.60;4.87;;;37.50;99.90;;;;;;5051662;28;20472;-73
2022/10/30 11:10:22;;;;;;;63.20;5.40;;;37.50;99.90;;;;;;5050826;28;20462;-73
2022/10/30 11:12:49;;;;;;;60.00;4.80;;;38.20;99.90;;;;;;5051937;28;20464;-73
2022/10/30 11:15:38;;;;;;;61.17;5.00;;;39.20;99.90;;;;;;5051632;28;20453;-74
2022/10/30 11:18:06;;;;;;;60.53;4.87;;;40.20;99.90;;;;;;5051204;28;20475;-73
2022/10/30 11:20:42;;;;;;;63.77;5.23;;;40.80;99.90;;;;;;5050672;28;20543;-73
2022/10/30 11:23:34;;;;;;;67.80;6.30;;;39.90;99.90;;;;;;5051416;28;20466;-73
2022/10/30 11:26:02;;;;;;;62.47;4.80;;;39.40;99.90;;;;;;5051485;28;20484;-74
2022/10/30 11:28:40;;;;;;;63.10;5.60;;;39.40;99.90;;;;;;5050934;28;20480;-73
2022/10/30 11:31:26;;;;;;;63.30;5.47;;;39.90;99.90;;;;;;5051415;28;20452;-74
2022/10/30 11:33:54;;;;;;;63.90;5.10;;;41.60;99.90;;;;;;5051518;28;20503;-73
2022/10/30 11:36:25;;;;;;;64.60;4.70;;;41.80;99.90;;;;;;5051268;28;20964;-73
2022/10/30 11:38:52;;;;;;;64.50;5.60;;;41.70;99.90;;;;;;5050761;28;20452;-73
2022/10/30 11:41:20;;;;;;;61.90;4.90;;;41.60;99.90;;;;;;5051340;28;20456;-74
2022/10/30 11:43:48;;;;;;;63.73;5.33;;;41.70;99.90;;;;;;5051200;28;20625;-73
2022/10/30 11:46:22;;;;;;;60.07;4.57;;;41.80;99.90;;;;;;5053062;28;20538;-73
2022/10/30 11:48:53;;;;;;;63.67;4.93;;;42.20;99.90;;;;;;5054524;28;20456;-73
2022/10/30 11:51:34;;;;;;;64.90;4.70;;;41.50;99.90;;;;;;5055208;28;20460;-73
2022/10/30 11:54:02;;;;;;;60.97;4.90;;;41.20;99.90;;;;;;5055042;28;20450;-73
2022/10/30 11:56:30;;;;;;;61.97;5.03;;;41.20;99.90;;;;;;5054894;28;20537;-73
2022/10/30 11:58:59;;;;;;;61.97;4.90;;;41.40;99.90;;;;;;5054268;28;20452;-73
2022/10/30 12:01:28;;;;;;;62.37;5.00;;;42.80;99.90;;;;;;5054774;28;20945;-73
2022/10/30 12:03:55;;;;;;;62.93;4.60;;;43.10;99.90;;;;;;5054899;28;20452;-73
2022/10/30 12:06:27;;;;;;;62.37;4.63;;;43.30;99.90;;;;;;5054709;28;20456;-74
2022/10/30 12:09:10;;;;;;;61.47;5.00;;;42.30;99.90;;;;;;5053878;28;20452;-73
2022/10/30 12:11:38;;;;;;;62.00;4.97;;;40.70;99.90;;;;;;5054662;28;20961;-74
2022/10/30 12:14:06;;;;;;;64.57;5.20;;;39.40;99.90;;;;;;5054850;28;20883;-73
2022/10/30 12:16:33;;;;;;;61.37;5.23;;;38.40;99.90;;;;;;5054432;28;20499;-73
2022/10/30 12:19:03;;;;;;;63.83;5.43;;;37.30;99.90;;;;;;5053881;28;20452;-74
2022/10/30 12:21:35;;;;;;;64.43;5.50;;;36.70;99.90;;;;;;5054700;28;20787;-73
2022/10/30 12:24:08;;;;;;;63.37;4.60;;;36.00;99.90;;;;;;5054568;28;20444;-73
2022/10/30 12:26:37;;;;;;;63.17;4.67;;;35.50;99.90;;;;;;5054486;28;20472;-73
2022/10/30 12:29:08;;;;;;;61.73;4.57;;;35.20;99.90;;;;;;5053687;28;20452;-73
2022/10/30 12:31:39;;;;;;;65.47;5.07;;;34.80;99.90;;;;;;5054347;28;20444;-73
2022/10/30 12:34:29;;;;;;;64.13;6.47;;;34.40;99.90;;;;;;5054359;28;20492;-73
2022/10/30 12:37:03;;;;;;;62.50;4.93;;;34.00;99.90;;;;;;5054258;28;20502;-73
2022/10/30 12:39:44;;;;;;;66.47;5.60;;;33.90;99.90;;;;;;5053439;28;20453;-73
2022/10/30 12:42:15;;;;;;;63.27;4.50;;;34.10;99.90;;;;;;5054035;28;20452;-74
2022/10/30 12:44:46;;;;;;;64.60;4.70;;;34.10;99.90;;;;;;5054084;28;20453;-73
2022/10/30 12:47:21;;;;;;;64.20;5.20;;;34.20;99.90;;;;;;5054011;28;21002;-73
2022/10/30 12:49:51;;;;;;;72.10;5.30;;;33.90;99.90;;;;;;5053403;28;20448;-73
2022/10/30 12:52:24;;;;;;;63.27;4.90;;;34.10;99.90;;;;;;5053966;28;20535;-73